Time;durP1;ratioP1;P1;durP2;ratioP2;P2;SDS_P1;SDS_P2;PMS_P1;PMS_P2;Temp;Humidity;BMP_temperature;BMP_pressure;BME280_temperature;BME280_humidity;BME280_pressure;Samples;Min_cycle;Max_cycle;Signal;HPM_P1;HPM_P2
2023/03/01 00:00:35;;;;;;;15.35;9.10;;;;;;;-2.90;94.67;103112.63;5051514;28;20025;-77
2023/03/01 00:03:01;;;;;;;13.27;9.38;;;;;;;-2.88;93.97;103111.94;5052367;28;20036;-77
2023/03/01 00:05:26;;;;;;;15.13;9.55;;;;;;;-2.90;95.25;103110.94;5051952;28;20016;-77
2023/03/01 00:07:54;;;;;;;14.52;9.15;;;;;;;-2.91;94.45;103111.75;5051494;28;20029;-77
2023/03/01 00:10:19;;;;;;;13.90;9.10;;;;;;;-2.93;94.70;103114.97;5051167;28;20031;-77
2023/03/01 00:12:45;;;;;;;13.27;8.90;;;;;;;-2.99;95.02;103112.88;5052360;28;20391;-77
2023/03/01 00:15:11;;;;;;;13.88;8.80;;;;;;;-3.01;95.51;103124.63;5051031;28;20464;-77
2023/03/01 00:17:36;;;;;;;16.83;9.80;;;;;;;-3.04;95.51;103110.78;5051805;28;20032;-76
2023/03/01 00:20:02;;;;;;;15.07;9.27;;;;;;;-3.05;95.47;103117.56;5052245;28;20028;-77
2023/03/01 00:22:28;;;;;;;14.73;9.70;;;;;;;-3.09;96.33;103113.91;5051237;28;20079;-77
2023/03/01 00:24:53;;;;;;;15.35;9.27;;;;;;;-3.15;96.56;103098.19;5052027;28;20021;-76
2023/03/01 00:27:19;;;;;;;15.38;9.80;;;;;;;-3.26;96.18;103088.91;5050856;28;20036;-76
2023/03/01 00:29:44;;;;;;;15.65;8.98;;;;;;;-3.18;96.50;103103.06;5051489;28;20103;-76
2023/03/01 00:32:09;;;;;;;15.18;10.05;;;;;;;-3.25;96.37;103094.91;5053374;28;20045;-76
2023/03/01 00:34:35;;;;;;;16.83;9.95;;;;;;;-3.18;97.46;103112.41;5055731;28;20021;-77
2023/03/01 00:37:05;;;;;;;14.77;9.35;;;;;;;-3.20;96.99;103109.75;5054885;28;20483;-77
2023/03/01 00:39:32;;;;;;;14.63;9.30;;;;;;;-3.24;97.86;103102.66;5055358;28;20029;-77
2023/03/01 00:41:57;;;;;;;13.93;8.73;;;;;;;-3.27;97.67;103106.66;5054805;28;20021;-76
2023/03/01 00:44:22;;;;;;;17.48;9.60;;;;;;;-3.32;97.67;103103.78;5050077;28;20384;-77
2023/03/01 00:46:48;;;;;;;14.55;9.43;;;;;;;-3.34;97.77;103105.34;5053241;28;20056;-76
2023/03/01 00:49:13;;;;;;;13.93;9.50;;;;;;;-3.39;98.43;103104.16;5054382;28;20094;-77
2023/03/01 00:51:41;;;;;;;17.38;10.32;;;;;;;-3.44;99.17;103092.72;5055098;28;20029;-77
2023/03/01 00:54:08;;;;;;;14.65;9.23;;;;;;;-3.39;99.73;103099.94;5053869;28;20551;-76
2023/03/01 00:56:34;;;;;;;12.57;8.73;;;;;;;-3.45;99.66;103096.06;5057231;28;20051;-77
2023/03/01 00:59:02;;;;;;;16.77;10.18;;;;;;;-3.51;99.57;103091.44;5058958;28;20460;-76
2023/03/01 01:01:30;;;;;;;14.20;9.55;;;;;;;-3.48;100.00;103094.19;5053774;28;20068;-77
2023/03/01 01:03:58;;;;;;;14.30;9.43;;;;;;;-3.47;100.00;103087.41;5054237;28;20018;-76
2023/03/01 01:06:27;;;;;;;14.73;9.90;;;;;;;-3.55;100.00;103080.13;5051956;28;20480;-77
2023/03/01 01:08:55;;;;;;;16.10;9.60;;;;;;;-3.55;100.00;103087.78;5054972;28;20021;-77
2023/03/01 01:11:21;;;;;;;18.83;10.18;;;;;;;-3.62;100.00;103074.50;5057826;28;20037;-77
2023/03/01 01:13:47;;;;;;;15.93;10.20;;;;;;;-3.58;100.00;103085.00;5054633;28;20025;-77
2023/03/01 01:16:16;;;;;;;15.52;9.07;;;;;;;-3.63;100.00;103081.28;5054675;28;20032;-77
2023/03/01 01:18:42;;;;;;;17.15;10.95;;;;;;;-3.63;100.00;103083.81;5053294;28;20361;-77
2023/03/01 01:21:15;;;;;;;17.23;9.73;;;;;;;-3.70;100.00;103073.94;5054546;28;20024;-77
2023/03/01 01:23:42;;;;;;;14.25;9.48;;;;;;;-3.67;100.00;103076.72;5055212;28;20036;-77
2023/03/01 01:26:13;;;;;;;17.05;9.80;;;;;;;-3.69;100.00;103067.22;5053755;28;20020;-76
2023/03/01 01:28:38;;;;;;;16.80;9.77;;;;;;;-3.68;100.00;103061.31;5054778;28;20104;-77
2023/03/01 01:31:06;;;;;;;17.20;10.32;;;;;;;-3.69;100.00;103068.09;5055440;28;20104;-77
2023/03/01 01:33:33;;;;;;;15.25;9.50;;;;;;;-3.74;100.00;103055.78;5054984;28;20051;-77
2023/03/01 01:35:58;;;;;;;16.25;10.05;;;;;;;-3.83;100.00;103036.50;5054149;28;20025;-77
2023/03/01 01:38:24;;;;;;;18.88;9.98;;;;;;;-3.79;100.00;103047.84;5053281;28;20476;-76
2023/03/01 01:40:50;;;;;;;16.77;10.13;;;;;;;-3.82;100.00;103039.97;5054471;28;20033;-77
2023/03/01 01:43:30;;;;;;;16.23;9.77;;;;;;;-3.84;100.00;103038.97;5053488;28;20112;-77
2023/03/01 01:46:13;;;;;;;17.17;10.13;;;;;;;-3.90;100.00;103029.22;5053540;28;20418;-76
2023/03/01 01:48:44;;;;;;;15.83;10.20;;;;;;;-3.87;100.00;103033.66;5054333;28;20013;-76
2023/03/01 01:51:17;;;;;;;15.40;9.73;;;;;;;-3.92;100.00;103038.44;5053818;28;20479;-76
2023/03/01 01:53:48;;;;;;;14.25;9.35;;;;;;;-3.94;100.00;103028.91;5052913;28;20036;-77
2023/03/01 01:56:16;;;;;;;14.45;9.55;;;;;;;-3.89;100.00;103042.84;5054089;28;20028;-76
2023/03/01 01:58:43;;;;;;;16.05;10.30;;;;;;;-3.96;100.00;103026.25;5053774;28;20062;-77
2023/03/01 02:01:09;;;;;;;17.17;9.65;;;;;;;-3.94;100.00;103028.91;5052981;28;20048;-76
2023/03/01 02:03:41;;;;;;;15.85;9.32;;;;;;;-3.98;100.00;103032.03;5053856;28;20040;-77
2023/03/01 02:06:21;;;;;;;15.93;10.10;;;;;;;-4.01;100.00;103023.38;5053925;28;20021;-77
2023/03/01 02:08:49;;;;;;;15.48;9.60;;;;;;;-4.03;100.00;103017.28;5053267;28;20051;-77
2023/03/01 02:11:15;;;;;;;15.02;10.02;;;;;;;-4.11;100.00;103018.41;5042849;28;20025;-77
2023/03/01 02:13:41;;;;;;;16.08;9.75;;;;;;;-4.14;100.00;103018.19;5052819;28;20025;-77
2023/03/01 02:16:12;;;;;;;15.65;10.15;;;;;;;-4.12;100.00;103024.28;5053515;28;20090;-77
2023/03/01 02:18:39;;;;;;;17.50;9.93;;;;;;;-4.17;100.00;103017.09;5053571;28;20086;-77
2023/03/01 02:21:23;;;;;;;16.92;10.02;;;;;;;-4.18;100.00;103013.66;5053161;28;20118;-77
2023/03/01 02:23:48;;;;;;;17.65;10.32;;;;;;;-4.23;100.00;103012.44;5053753;28;20461;-77
2023/03/01 02:26:34;;;;;;;16.23;10.40;;;;;;;-4.24;100.00;103013.22;5052677;28;20048;-76
2023/03/01 02:29:00;;;;;;;17.65;10.07;;;;;;;-4.29;100.00;103006.91;5052875;28;20029;-76
2023/03/01 02:31:44;;;;;;;16.58;10.32;;;;;;;-4.31;100.00;103009.34;5053178;28;20090;-76
2023/03/01 02:34:16;;;;;;;20.00;10.55;;;;;;;-4.32;100.00;103007.56;5052953;28;20480;-77
2023/03/01 02:36:47;;;;;;;16.98;10.40;;;;;;;-4.33;100.00;103010.91;5052955;28;20388;-77
2023/03/01 02:39:18;;;;;;;16.60;9.80;;;;;;;-4.37;100.00;103001.28;5052956;28;20031;-77
2023/03/01 02:41:48;;;;;;;15.43;9.65;;;;;;;-4.35;100.00;103016.66;5052178;28;20929;-77
2023/03/01 02:44:14;;;;;;;14.98;9.77;;;;;;;-4.35;100.00;103011.56;5052173;28;20523;-77
2023/03/01 02:47:03;;;;;;;15.20;9.55;;;;;;;-4.44;100.00;102996.53;5053000;28;20116;-76
2023/03/01 02:49:31;;;;;;;19.10;9.98;;;;;;;-4.36;100.00;103013.22;5051981;28;20052;-77
2023/03/01 02:52:37;;;;;;;13.98;9.18;;;;;;;-4.29;100.00;103024.72;5053033;28;20017;-76
2023/03/01 02:55:08;;;;;;;13.95;9.13;;;;;;;-4.29;100.00;103017.09;5052385;28;20104;-76
2023/03/01 02:57:35;;;;;;;16.75;9.40;;;;;;;-4.27;100.00;103020.63;5052346;28;20029;-76
2023/03/01 03:00:07;;;;;;;16.38;9.98;;;;;;;-4.32;100.00;103007.56;5051851;28;20033;-76
2023/03/01 03:02:36;;;;;;;16.20;10.68;;;;;;;-4.27;100.00;103013.00;5049750;28;20021;-76
2023/03/01 03:05:15;;;;;;;21.40;9.60;;;;;;;-4.21;100.00;103013.44;5058658;28;20024;-76
2023/03/01 03:07:43;;;;;;;15.38;9.88;;;;;;;-4.37;100.00;102983.44;5044340;28;20488;-76
2023/03/01 03:10:12;;;;;;;15.52;10.10;;;;;;;-4.28;100.00;103003.59;5051188;28;20028;-76
2023/03/01 03:12:38;;;;;;;17.25;9.45;;;;;;;-4.35;100.00;102997.19;5055580;28;20087;-77
2023/03/01 03:15:08;;;;;;;15.57;9.82;;;;;;;-4.30;100.00;103016.22;5051160;28;20414;-76
2023/03/01 03:17:37;;;;;;;15.90;9.43;;;;;;;-4.37;100.00;102997.84;5053348;28;20422;-76
2023/03/01 03:20:10;;;;;;;18.38;9.52;;;;;;;-4.32;100.00;103006.69;5052633;28;20016;-76
2023/03/01 03:22:37;;;;;;;16.20;9.50;;;;;;;-4.36;100.00;103005.56;5052650;28;20090;-76
2023/03/01 03:25:02;;;;;;;15.00;9.05;;;;;;;-4.37;100.00;103008.91;5051870;28;20079;-77
2023/03/01 03:27:28;;;;;;;14.48;9.05;;;;;;;-4.39;100.00;103007.91;5052411;28;20037;-76
2023/03/01 03:29:53;;;;;;;20.40;9.82;;;;;;;-4.43;100.00;103003.38;5052622;28;20063;-76
2023/03/01 03:32:18;;;;;;;17.95;9.98;;;;;;;-4.47;100.00;103009.91;5051224;28;20087;-76
2023/03/01 03:34:44;;;;;;;15.38;9.52;;;;;;;-4.50;100.00;102999.50;5051691;28;20107;-77
2023/03/01 03:38:01;;;;;;;14.95;9.00;;;;;;;-4.58;100.00;102977.72;5051753;28;20029;-77
2023/03/01 03:39:54;;;;;;;15.05;9.43;;;;;;;-4.46;100.00;103003.16;5051495;28;20155;-76
2023/03/01 03:42:21;;;;;;;14.05;9.35;;;;;;;-4.43;100.00;103005.91;5051542;28;20045;-76
2023/03/01 03:44:47;;;;;;;16.70;9.43;;;;;;;-4.48;100.00;102994.50;5051248;28;20098;-76
2023/03/01 03:47:12;;;;;;;14.35;9.10;;;;;;;-4.45;100.00;103002.38;5051308;28;20460;-76
2023/03/01 03:49:40;;;;;;;16.02;8.93;;;;;;;-4.46;100.00;103000.59;5051317;28;20111;-76
2023/03/01 03:52:13;;;;;;;14.82;8.82;;;;;;;-4.45;100.00;102998.94;5050838;28;20346;-76
2023/03/01 03:54:39;;;;;;;16.13;8.98;;;;;;;-4.46;100.00;103005.69;5051632;28;20032;-76
2023/03/01 03:57:04;;;;;;;16.83;8.70;;;;;;;-4.52;100.00;103000.16;5051458;28;20483;-76
2023/03/01 03:59:29;;;;;;;15.82;8.93;;;;;;;-4.55;100.00;102990.63;5050221;28;20048;-76
2023/03/01 04:01:55;;;;;;;14.52;8.70;;;;;;;-4.52;100.00;103003.59;5051474;28;20040;-77
2023/03/01 04:04:20;;;;;;;17.58;10.52;;;;;;;-4.52;100.00;102997.59;5050295;28;20020;-76
2023/03/01 04:06:46;;;;;;;20.17;9.25;;;;;;;-4.50;100.00;102980.78;5051630;28;20472;-76
2023/03/01 04:09:11;;;;;;;16.50;9.23;;;;;;;-4.51;100.00;102981.59;5055281;28;20033;-76
2023/03/01 04:11:40;;;;;;;13.73;8.32;;;;;;;-4.49;100.00;102978.34;5056857;28;20043;-76
2023/03/01 04:14:05;;;;;;;14.98;8.70;;;;;;;-4.44;100.00;102977.81;5053622;28;20024;-76
2023/03/01 04:16:30;;;;;;;13.55;8.85;;;;;;;-4.48;100.00;102967.41;5055051;28;20025;-77
2023/03/01 04:18:56;;;;;;;16.90;8.98;;;;;;;-4.43;100.00;102969.41;5066288;28;20032;-76
2023/03/01 04:21:22;;;;;;;15.85;8.77;;;;;;;-4.40;100.00;102967.06;5057380;28;20032;-76
2023/03/01 04:23:48;;;;;;;12.30;7.88;;;;;;;-4.35;100.00;102976.81;5055936;28;20112;-76
2023/03/01 04:26:13;;;;;;;15.10;8.27;;;;;;;-4.36;100.00;102974.13;5053079;28;20025;-77
2023/03/01 04:28:42;;;;;;;12.65;7.95;;;;;;;-4.36;100.00;102979.22;5054442;28;20067;-76
2023/03/01 04:31:13;;;;;;;14.10;8.50;;;;;;;-4.39;100.00;102964.63;5053820;28;20060;-77
2023/03/01 04:33:53;;;;;;;13.50;7.90;;;;;;;-4.44;100.00;102970.19;5054334;28;20036;-77
2023/03/01 04:36:27;;;;;;;16.73;8.57;;;;;;;-4.44;100.00;102980.38;5053128;28;20086;-77
2023/03/01 04:38:52;;;;;;;12.60;7.93;;;;;;;-4.47;100.00;102961.53;5041613;28;20144;-76
2023/03/01 04:41:20;;;;;;;12.52;8.20;;;;;;;-4.47;100.00;102971.72;5054895;28;20143;-76
2023/03/01 04:43:46;;;;;;;17.10;8.52;;;;;;;-4.51;100.00;102968.84;5055309;28;20067;-76
2023/03/01 04:46:13;;;;;;;14.38;8.88;;;;;;;-4.53;100.00;102965.31;5054119;28;20029;-76
2023/03/01 04:48:40;;;;;;;14.77;7.88;;;;;;;-4.54;100.00;102961.88;5054689;28;20025;-77
2023/03/01 04:51:08;;;;;;;12.30;8.02;;;;;;;-4.58;100.00;102956.44;5055291;28;20033;-76
2023/03/01 04:53:36;;;;;;;13.65;8.20;;;;;;;-4.60;100.00;102948.69;5055144;28;20503;-76
2023/03/01 04:56:01;;;;;;;14.13;8.07;;;;;;;-4.59;100.00;102945.38;5056436;28;20475;-77
2023/03/01 04:58:30;;;;;;;13.73;8.25;;;;;;;-4.64;100.00;102940.72;5054771;28;20048;-76
2023/03/01 05:00:55;;;;;;;12.90;7.45;;;;;;;-4.64;100.00;102944.19;5054394;28;20063;-76
2023/03/01 05:03:21;;;;;;;14.48;8.30;;;;;;;-4.69;100.00;102942.94;5054390;28;20108;-76
2023/03/01 05:05:49;;;;;;;13.23;7.63;;;;;;;-4.69;100.00;102955.66;5055182;28;20486;-77
2023/03/01 05:08:18;;;;;;;14.23;8.18;;;;;;;-4.67;100.00;102951.59;5054856;28;20160;-77
2023/03/01 05:10:49;;;;;;;12.98;8.05;;;;;;;-4.68;100.00;102944.69;5053999;28;20029;-76
2023/03/01 05:13:20;;;;;;;16.95;9.20;;;;;;;-4.73;100.00;102946.94;5054864;28;20045;-76
2023/03/01 05:15:47;;;;;;;15.43;8.88;;;;;;;-4.65;100.00;102954.22;5054743;28;20031;-76
2023/03/01 05:18:12;;;;;;;15.70;9.07;;;;;;;-4.67;100.00;102946.50;5050670;28;20490;-76
2023/03/01 05:20:38;;;;;;;15.65;9.55;;;;;;;-4.63;100.00;102952.69;5054727;28;20029;-76
2023/03/01 05:23:05;;;;;;;17.83;9.60;;;;;;;-4.72;100.00;102942.72;5054464;28;20079;-77
2023/03/01 05:25:32;;;;;;;17.17;9.48;;;;;;;-4.72;100.00;102933.41;5053637;28;20036;-77
2023/03/01 05:28:04;;;;;;;15.80;9.10;;;;;;;-4.76;100.00;102928.00;5054538;28;20032;-76
2023/03/01 05:30:33;;;;;;;15.45;8.85;;;;;;;-4.77;100.00;102926.25;5053759;28;20043;-76
2023/03/01 05:32:58;;;;;;;15.85;9.07;;;;;;;-4.86;100.00;102923.03;5053688;28;20049;-76
2023/03/01 05:35:24;;;;;;;14.27;8.70;;;;;;;-4.85;100.00;102932.44;5054299;28;20025;-76
2023/03/01 05:37:50;;;;;;;16.42;9.20;;;;;;;-4.89;100.00;102920.28;5053085;28;20048;-76
2023/03/01 05:40:20;;;;;;;17.08;9.18;;;;;;;-4.91;100.00;102911.63;5054120;28;20025;-76
2023/03/01 05:42:47;;;;;;;13.10;7.95;;;;;;;-4.93;100.00;102915.75;5054180;28;20090;-76
2023/03/01 05:45:13;;;;;;;17.02;9.60;;;;;;;-4.97;100.00;102910.44;5053109;28;20419;-76
2023/03/01 05:47:44;;;;;;;15.68;9.02;;;;;;;-4.98;100.00;102908.63;5054495;28;20029;-76
2023/03/01 05:50:21;;;;;;;14.10;8.38;;;;;;;-5.03;100.00;102904.91;5051601;28;20048;-76
2023/03/01 05:52:51;;;;;;;15.10;8.90;;;;;;;-5.03;100.00;102909.97;5053554;28;20447;-76
2023/03/01 05:55:20;;;;;;;14.82;8.57;;;;;;;-5.00;100.00;102914.41;5054765;28;20025;-76
2023/03/01 05:57:46;;;;;;;16.42;9.07;;;;;;;-5.03;100.00;102912.53;5063443;28;20035;-76
2023/03/01 06:00:13;;;;;;;14.43;8.98;;;;;;;-5.04;100.00;102913.28;5059462;28;20032;-76
2023/03/01 06:02:39;;;;;;;15.35;8.93;;;;;;;-5.05;100.00;102911.50;5054060;28;20387;-76
2023/03/01 06:05:06;;;;;;;14.60;8.93;;;;;;;-5.08;100.00;102906.19;5054089;28;20074;-76
2023/03/01 06:07:32;;;;;;;14.63;8.88;;;;;;;-5.05;100.00;102916.59;5052351;28;20419;-76
2023/03/01 06:09:57;;;;;;;16.20;9.65;;;;;;;-5.11;100.00;102905.97;5054091;28;20021;-76
2023/03/01 06:12:22;;;;;;;17.05;8.93;;;;;;;-5.07;100.00;102908.00;5053603;28;20032;-76
2023/03/01 06:14:48;;;;;;;14.23;9.35;;;;;;;-5.07;100.00;102913.09;5053097;28;20078;-76
2023/03/01 06:17:19;;;;;;;17.23;9.82;;;;;;;-5.13;100.00;102910.09;5053525;28;20017;-76
2023/03/01 06:19:46;;;;;;;15.63;8.70;;;;;;;-5.07;100.00;102908.00;5052848;28;20069;-76
2023/03/01 06:22:11;;;;;;;16.63;9.63;;;;;;;-5.04;100.00;102910.72;5053519;28;20024;-76
2023/03/01 06:24:36;;;;;;;16.48;10.32;;;;;;;-5.01;100.00;102912.63;5047354;28;20025;-76
2023/03/01 06:27:02;;;;;;;17.52;10.75;;;;;;;-5.08;100.00;102896.03;5052974;28;20020;-76
2023/03/01 06:29:30;;;;;;;17.38;10.18;;;;;;;-5.01;100.00;102905.00;5053263;28;20029;-76
2023/03/01 06:31:58;;;;;;;18.25;10.45;;;;;;;-4.98;100.00;102908.63;5053150;28;20044;-76
2023/03/01 06:34:23;;;;;;;21.20;11.20;;;;;;;-4.93;100.00;102916.63;5052612;28;20028;-76
2023/03/01 06:36:51;;;;;;;17.52;9.80;;;;;;;-4.99;100.00;102904.34;5053140;28;20021;-76
2023/03/01 06:39:17;;;;;;;18.65;9.90;;;;;;;-4.89;100.00;102920.28;5053139;28;20096;-76
2023/03/01 06:41:43;;;;;;;17.75;10.15;;;;;;;-4.91;100.00;102919.25;5047881;28;20029;-76
2023/03/01 06:44:08;;;;;;;18.15;10.55;;;;;;;-4.86;100.00;102928.13;5052975;28;20043;-76
2023/03/01 06:46:33;;;;;;;18.58;9.95;;;;;;;-4.87;100.00;102917.06;5053244;28;20105;-76
2023/03/01 06:48:59;;;;;;;19.27;10.70;;;;;;;-4.85;100.00;102910.41;5052436;28;20029;-76
2023/03/01 06:51:25;;;;;;;19.75;9.93;;;;;;;-4.74;100.00;102918.84;5052666;28;20464;-76
2023/03/01 06:53:50;;;;;;;16.33;10.50;;;;;;;-4.69;100.00;102916.63;5053100;28;20108;-76
2023/03/01 06:56:15;;;;;;;18.80;10.02;;;;;;;-4.71;100.00;102906.31;5051949;28;20107;-76
2023/03/01 06:58:40;;;;;;;19.90;11.20;;;;;;;-4.66;100.00;102907.53;5052404;28;20079;-76
2023/03/01 07:01:11;;;;;;;20.27;10.82;;;;;;;-4.62;100.00;102911.19;5052583;28;20108;-76
2023/03/01 07:03:37;;;;;;;19.65;11.30;;;;;;;-4.54;100.00;102910.97;5052064;28;20036;-76
2023/03/01 07:06:02;;;;;;;25.05;15.27;;;;;;;-4.54;100.00;102900.78;5052446;28;20017;-76
2023/03/01 07:08:27;;;;;;;26.40;14.63;;;;;;;-4.49;100.00;102904.50;5052684;28;20033;-76
2023/03/01 07:10:59;;;;;;;20.05;12.20;;;;;;;-4.43;100.00;102911.72;5051968;28;20029;-76
2023/03/01 07:13:24;;;;;;;18.88;10.50;;;;;;;-4.32;100.00;102900.59;5050026;28;20020;-76
2023/03/01 07:15:50;;;;;;;22.25;10.50;;;;;;;-4.26;100.00;102900.16;5053823;28;20075;-76
2023/03/01 07:18:15;;;;;;;20.10;11.32;;;;;;;-4.15;100.00;102916.16;5064645;28;20025;-76
2023/03/01 07:20:41;;;;;;;18.63;11.50;;;;;;;-4.07;100.00;102918.47;5061306;28;20061;-76
2023/03/01 07:23:06;;;;;;;17.98;11.63;;;;;;;-4.04;100.00;102921.25;5054574;28;20032;-76
2023/03/01 07:25:34;;;;;;;18.40;11.45;;;;;;;-3.97;100.00;102924.22;5054486;28;20502;-76
2023/03/01 07:28:00;;;;;;;21.60;11.35;;;;;;;-3.95;100.00;102931.19;5052502;28;20043;-75
2023/03/01 07:30:28;;;;;;;19.73;11.57;;;;;;;-3.95;100.00;102917.59;5051577;28;20867;-76
2023/03/01 07:32:57;;;;;;;18.60;11.20;;;;;;;-3.78;100.00;102927.25;5051523;28;20119;-76
2023/03/01 07:35:23;;;;;;;25.25;12.18;;;;;;;-3.69;100.00;102924.47;5052312;28;20021;-76
2023/03/01 07:37:51;;;;;;;22.67;12.30;;;;;;;-3.61;100.00;102919.06;5051854;28;20104;-76
2023/03/01 07:40:17;;;;;;;21.15;11.70;;;;;;;-3.54;100.00;102926.34;5053181;28;20056;-76
2023/03/01 07:42:42;;;;;;;19.52;11.82;;;;;;;-3.52;100.00;102916.25;5051972;28;20112;-76
2023/03/01 07:45:08;;;;;;;21.98;10.77;;;;;;;-3.43;100.00;102921.09;5051445;28;20017;-76
2023/03/01 07:47:36;;;;;;;26.65;11.63;;;;;;;-3.36;100.00;102925.81;5052085;28;20033;-76
2023/03/01 07:50:03;;;;;;;26.83;12.63;;;;;;;-3.26;100.00;102919.66;5051801;28;20021;-76
2023/03/01 07:52:29;;;;;;;21.58;11.30;;;;;;;-3.17;100.00;102922.81;5037390;28;20476;-76
2023/03/01 07:55:04;;;;;;;19.58;11.90;;;;;;;-3.07;100.00;102927.75;5050906;28;20117;-76
2023/03/01 07:57:29;;;;;;;24.08;11.32;;;;;;;-2.99;100.00;102920.59;5051322;28;20112;-75
2023/03/01 07:59:54;;;;;;;20.30;11.05;;;;;;;-2.93;100.00;102905.66;5051165;28;20116;-76
2023/03/01 08:02:20;;;;;;;19.25;10.48;;;;;;;-2.87;100.00;102899.28;5051868;28;20087;-75
2023/03/01 08:04:45;;;;;;;20.48;11.05;;;;;;;-2.91;100.00;102879.47;5052243;28;20024;-75
2023/03/01 08:07:13;;;;;;;20.08;10.73;;;;;;;-2.63;100.00;102910.16;5050538;28;20036;-76
2023/03/01 08:09:38;;;;;;;22.30;11.02;;;;;;;-2.46;100.00;102912.91;5051582;28;20025;-76
2023/03/01 08:12:04;;;;;;;19.10;10.45;;;;;;;-2.38;100.00;102912.59;5047934;28;20037;-76
2023/03/01 08:14:33;;;;;;;16.63;9.98;;;;;;;-2.28;100.00;102921.72;5053422;28;20104;-76
2023/03/01 08:17:02;;;;;;;20.65;10.82;;;;;;;-2.20;100.00;102915.41;5052378;28;20494;-76
2023/03/01 08:19:28;;;;;;;16.27;9.68;;;;;;;-2.09;100.00;102910.06;5051120;28;20037;-76
2023/03/01 08:21:53;;;;;;;18.27;10.02;;;;;;;-1.96;99.68;102920.28;5051605;28;20019;-75
2023/03/01 08:24:21;;;;;;;18.45;10.98;;;;;;;-1.90;99.14;102915.50;5051372;28;20037;-76
2023/03/01 08:26:49;;;;;;;20.73;11.82;;;;;;;-1.82;98.55;102908.31;5051392;28;20070;-75
2023/03/01 08:29:14;;;;;;;20.52;11.38;;;;;;;-1.78;98.06;102890.69;5051562;28;20021;-75
2023/03/01 08:31:40;;;;;;;18.50;10.18;;;;;;;-1.61;97.61;102908.69;5050787;28;20053;-75
2023/03/01 08:34:16;;;;;;;20.73;11.50;;;;;;;-1.53;97.15;102904.94;5051377;28;20115;-75
2023/03/01 08:36:43;;;;;;;22.67;11.48;;;;;;;-1.50;95.52;102898.31;5051984;28;20432;-75
2023/03/01 08:39:11;;;;;;;14.73;10.18;;;;;;;-1.38;95.09;102895.59;5051743;28;20108;-75
2023/03/01 08:41:37;;;;;;;16.35;10.38;;;;;;;-1.27;93.72;102894.53;5047904;28;20033;-75
2023/03/01 08:44:03;;;;;;;15.93;10.27;;;;;;;-1.16;93.44;102901.94;5053315;28;20031;-75
2023/03/01 08:46:31;;;;;;;17.40;10.52;;;;;;;-1.07;92.45;102894.81;5051509;28;20032;-76
2023/03/01 08:48:57;;;;;;;13.93;9.77;;;;;;;-0.99;92.97;102878.19;5051184;28;20036;-75
2023/03/01 08:51:24;;;;;;;15.35;9.05;;;;;;;-0.90;90.86;102868.47;5051172;28;20532;-75
2023/03/01 08:53:49;;;;;;;14.95;8.50;;;;;;;-0.85;90.93;102872.19;5052029;28;20103;-75
2023/03/01 08:56:16;;;;;;;17.23;9.43;;;;;;;-0.75;90.60;102873.56;5054346;28;20531;-76
2023/03/01 08:58:46;;;;;;;12.57;8.38;;;;;;;-0.63;89.54;102870.78;5054920;28;20123;-75
2023/03/01 09:01:14;;;;;;;15.75;8.35;;;;;;;-0.61;88.80;102871.75;5053030;28;20021;-76
2023/03/01 09:03:43;;;;;;;14.10;8.98;;;;;;;-0.53;88.98;102875.59;5043483;28;20025;-75
2023/03/01 09:06:09;;;;;;;17.63;9.07;;;;;;;-0.39;87.83;102874.69;5054569;28;20013;-75
2023/03/01 09:08:39;;;;;;;15.13;8.00;;;;;;;-0.25;85.46;102868.59;5056384;28;20413;-75
2023/03/01 09:11:06;;;;;;;15.40;8.25;;;;;;;-0.16;87.18;102864.78;5054136;28;20031;-75
2023/03/01 09:13:32;;;;;;;15.93;9.10;;;;;;;-0.04;86.85;102868.84;5047952;28;20056;-75
2023/03/01 09:15:59;;;;;;;16.45;7.95;;;;;;;0.07;85.51;102860.84;5056453;28;20016;-75
2023/03/01 09:18:24;;;;;;;13.80;7.97;;;;;;;0.15;83.01;102856.97;5049462;28;20033;-75
2023/03/01 09:20:49;;;;;;;14.70;8.05;;;;;;;0.24;82.50;102842.06;5054798;28;20037;-76
2023/03/01 09:23:15;;;;;;;16.20;8.10;;;;;;;0.42;81.60;102848.09;5053813;28;20078;-76
2023/03/01 09:25:40;;;;;;;14.30;8.07;;;;;;;0.47;78.36;102832.94;5054291;28;20029;-76
2023/03/01 09:28:06;;;;;;;11.63;7.50;;;;;;;0.68;77.52;102844.25;5054182;28;20055;-76
2023/03/01 09:30:34;;;;;;;14.43;8.27;;;;;;;0.79;77.94;102838.78;5052715;28;20549;-75
2023/03/01 09:33:00;;;;;;;13.82;8.63;;;;;;;0.84;77.28;102840.75;5053333;28;20053;-76
2023/03/01 09:35:25;;;;;;;14.05;8.00;;;;;;;0.91;75.93;102839.38;5053613;28;20039;-75
2023/03/01 09:37:51;;;;;;;15.00;8.95;;;;;;;1.01;75.73;102836.41;5051175;28;20037;-76
2023/03/01 09:40:20;;;;;;;12.35;7.95;;;;;;;1.13;74.59;102836.13;5051106;28;20029;-76
2023/03/01 09:43:05;;;;;;;15.35;8.77;;;;;;;1.14;74.67;102827.59;5050043;28;20033;-76
2023/03/01 09:45:35;;;;;;;16.25;9.18;;;;;;;1.23;73.49;102835.75;5048594;28;20094;-76
2023/03/01 09:48:03;;;;;;;14.05;8.35;;;;;;;1.32;74.19;102835.31;5050542;28;20036;-76
2023/03/01 09:50:35;;;;;;;17.42;9.00;;;;;;;1.38;75.54;102828.75;5050386;28;20087;-76
2023/03/01 09:53:09;;;;;;;15.60;8.90;;;;;;;1.47;73.03;102828.31;5054335;28;20029;-76
2023/03/01 09:55:50;;;;;;;13.13;8.20;;;;;;;1.58;71.38;102823.66;5053375;28;20540;-76
2023/03/01 09:58:36;;;;;;;17.30;8.43;;;;;;;1.63;71.14;102830.75;5063664;22;20061;-76
2023/03/01 10:01:27;;;;;;;15.60;8.80;;;;;;;1.70;69.67;102813.00;5064981;28;20068;-76
2023/03/01 10:04:11;;;;;;;15.82;8.40;;;;;;;1.74;69.96;102805.53;5073622;28;20039;-76
2023/03/01 10:06:36;;;;;;;13.93;8.55;;;;;;;1.81;69.72;102791.25;5073117;28;20389;-76
2023/03/01 10:09:14;;;;;;;14.60;8.80;;;;;;;1.89;70.40;102800.16;5073800;28;20020;-76
2023/03/01 10:11:46;;;;;;;13.88;7.63;;;;;;;1.92;68.93;102789.13;5073215;28;20033;-76
2023/03/01 10:14:35;;;;;;;13.25;8.00;;;;;;;1.98;66.50;102797.09;5073804;28;20028;-76
2023/03/01 10:17:34;;;;;;;12.25;7.97;;;;;;;2.03;66.64;102787.91;5073930;28;20021;-76
2023/03/01 10:20:20;;;;;;;13.60;8.13;;;;;;;2.09;66.98;102788.13;5071767;28;20032;-76
2023/03/01 10:22:50;;;;;;;14.55;8.32;;;;;;;2.08;66.95;102774.41;5072040;28;20457;-76
2023/03/01 10:25:22;;;;;;;12.90;8.60;;;;;;;2.19;66.92;102768.81;5069739;28;20020;-76
2023/03/01 10:27:53;;;;;;;12.90;7.78;;;;;;;2.23;67.02;102770.72;5071765;28;20052;-76
2023/03/01 10:30:21;;;;;;;17.00;8.57;;;;;;;2.28;65.48;102769.22;5073084;28;20032;-76
2023/03/01 10:32:50;;;;;;;17.58;8.63;;;;;;;2.26;65.24;102750.28;5070419;28;20468;-76
2023/03/01 10:35:28;;;;;;;15.07;8.90;;;;;;;2.37;65.20;102759.28;5069935;28;20025;-76
2023/03/01 10:38:05;;;;;;;13.35;7.97;;;;;;;2.40;63.88;102759.44;5067633;28;20486;-75
2023/03/01 10:40:33;;;;;;;11.77;8.20;;;;;;;2.50;64.52;102761.56;5063036;28;20020;-76
2023/03/01 10:43:02;;;;;;;14.48;8.57;;;;;;;2.58;62.48;102764.41;5074103;28;20029;-76
2023/03/01 10:45:37;;;;;;;13.77;8.07;;;;;;;2.64;63.26;102759.53;5068846;28;20103;-76
2023/03/01 10:48:08;;;;;;;11.60;8.07;;;;;;;2.72;62.95;102759.84;5072469;28;20017;-75
2023/03/01 10:50:34;;;;;;;14.02;7.72;;;;;;;2.81;62.57;102758.50;5072978;28;20373;-76
2023/03/01 10:53:03;;;;;;;11.20;8.48;;;;;;;2.86;62.91;102745.78;5072571;28;20043;-76
2023/03/01 10:55:36;;;;;;;13.63;7.68;;;;;;;2.96;61.39;102753.06;5072955;28;20029;-76
2023/03/01 10:58:19;;;;;;;12.80;8.20;;;;;;;2.99;60.65;102758.31;5072305;28;20032;-76
2023/03/01 11:00:48;;;;;;;13.02;8.48;;;;;;;3.02;59.92;102748.13;5071461;28;20130;-76
2023/03/01 11:03:19;;;;;;;13.13;7.93;;;;;;;3.12;59.23;102757.09;5072499;28;20375;-76
2023/03/01 11:06:15;;;;;;;14.20;8.15;;;;;;;3.24;59.54;102754.13;5072365;28;20348;-76
2023/03/01 11:08:44;;;;;;;13.60;8.73;;;;;;;3.27;57.60;102752.53;5069058;28;20045;-77
2023/03/01 11:11:31;;;;;;;17.27;8.07;;;;;;;3.33;58.00;102750.97;5070648;28;20079;-76
2023/03/01 11:14:15;;;;;;;12.40;8.13;;;;;;;3.43;58.32;102750.47;5071900;28;20054;-76
2023/03/01 11:16:43;;;;;;;14.48;9.55;;;;;;;3.57;58.19;102751.00;5060472;28;20027;-76
2023/03/01 11:19:08;;;;;;;16.35;9.00;;;;;;;3.60;57.83;102738.22;5072530;28;20039;-76